Time;durP1;ratioP1;P1;durP2;ratioP2;P2;SDS_P1;SDS_P2;PMS_P1;PMS_P2;Temp;Humidity;BMP_temperature;BMP_pressure;BME280_temperature;BME280_humidity;BME280_pressure;Samples;Min_cycle;Max_cycle;Signal;HPM_P1;HPM_P2
2023/04/18 00:00:19;;;;;;;16.13;8.55;;;12.00;57.10;;;11.34;45.41;101487.81;5018528;28;20046;-77
2023/04/18 00:02:47;;;;;;;13.55;8.82;;;12.00;57.50;;;11.24;45.88;101487.31;5001731;28;20149;-79
2023/04/18 00:05:16;;;;;;;15.65;8.57;;;11.90;58.10;;;11.15;46.02;101483.13;5007683;28;20040;-77
2023/04/18 00:07:45;;;;;;;15.27;9.02;;;11.80;58.30;;;11.13;46.20;101487.84;5010811;28;20041;-76
2023/04/18 00:10:13;;;;;;;14.38;9.02;;;11.80;58.70;;;11.09;46.69;101481.22;5025061;28;20041;-78
2023/04/18 00:12:40;;;;;;;17.27;8.85;;;11.70;59.20;;;10.97;47.23;101485.38;5010300;28;20050;-76
2023/04/18 00:15:09;;;;;;;15.43;8.93;;;11.60;59.60;;;10.98;47.17;101481.69;5012684;28;20056;-78
2023/04/18 00:17:38;;;;;;;15.52;8.93;;;11.60;59.80;;;11.00;47.50;101475.16;5006485;28;20412;-76
2023/04/18 00:20:09;;;;;;;20.38;8.95;;;11.50;60.20;;;10.99;47.77;101483.38;5019326;28;20133;-77
2023/04/18 00:22:41;;;;;;;16.52;8.98;;;11.60;60.90;;;11.00;48.05;101479.66;5010553;28;20073;-78
2023/04/18 00:25:10;;;;;;;17.77;9.27;;;11.60;61.20;;;10.99;48.33;101475.34;5004663;28;20042;-78
2023/04/18 00:27:39;;;;;;;19.80;9.45;;;11.60;61.50;;;10.99;48.37;101478.84;5010450;28;20065;-77
2023/04/18 00:30:08;;;;;;;15.18;9.13;;;11.60;61.70;;;10.96;48.72;101479.22;5027930;28;20076;-77
2023/04/18 00:32:37;;;;;;;16.30;9.52;;;11.60;62.20;;;10.93;48.66;101484.09;5018170;28;20049;-78
2023/04/18 00:35:06;;;;;;;19.02;9.07;;;11.50;62.20;;;10.94;49.03;101483.09;5012861;28;20045;-77
2023/04/18 00:37:33;;;;;;;15.15;9.98;;;11.50;62.40;;;10.96;49.07;101481.06;5007059;28;20066;-76
2023/04/18 00:40:00;;;;;;;15.52;9.45;;;11.60;62.40;;;10.94;49.21;101478.59;5021706;28;20047;-77
2023/04/18 00:42:29;;;;;;;12.98;9.02;;;11.50;62.80;;;10.93;49.28;101476.09;4998130;28;20137;-79
2023/04/18 00:44:56;;;;;;;14.45;9.25;;;11.50;62.80;;;10.93;49.35;101486.75;5003562;28;20076;-79
2023/04/18 00:47:23;;;;;;;15.10;9.43;;;11.50;63.20;;;10.87;49.45;101477.66;5017438;28;20123;-76
2023/04/18 00:49:51;;;;;;;15.15;9.27;;;11.50;63.20;;;10.85;49.83;101471.72;5002098;28;20132;-77
2023/04/18 00:52:18;;;;;;;16.48;9.00;;;11.50;63.60;;;10.80;49.94;101477.59;4979979;28;20073;-76
2023/04/18 00:54:46;;;;;;;13.75;9.10;;;11.40;63.80;;;10.80;49.96;101468.78;4992394;28;20048;-79
2023/04/18 00:57:14;;;;;;;14.52;9.18;;;11.40;63.90;;;10.78;50.11;101463.63;4989979;28;20561;-78
2023/04/18 00:59:43;;;;;;;14.40;9.23;;;11.40;64.00;;;10.73;50.32;101474.03;5010790;28;20046;-78
2023/04/18 01:02:10;;;;;;;18.15;9.35;;;11.30;64.30;;;10.71;50.35;101468.06;5010708;28;20092;-77
2023/04/18 01:04:37;;;;;;;17.88;9.18;;;11.30;64.40;;;10.67;50.53;101466.78;5010110;28;20073;-77
2023/04/18 01:07:05;;;;;;;14.15;9.43;;;11.30;64.50;;;10.63;50.78;101470.81;4992678;28;20045;-79
2023/04/18 01:09:32;;;;;;;16.08;9.50;;;11.30;65.00;;;10.62;51.00;101466.50;5020507;28;20046;-77
2023/04/18 01:12:00;;;;;;;18.23;9.50;;;11.30;65.20;;;10.62;51.05;101471.84;4994908;28;20048;-77
2023/04/18 01:14:27;;;;;;;19.52;9.50;;;11.20;65.20;;;10.59;51.05;101466.91;5000187;28;20056;-76
2023/04/18 01:16:57;;;;;;;15.00;9.50;;;11.20;65.40;;;10.59;51.08;101466.91;5010820;28;20756;-77
2023/04/18 01:19:25;;;;;;;15.20;9.80;;;11.20;65.50;;;10.61;51.34;101472.88;5001761;28;20046;-77
2023/04/18 01:21:52;;;;;;;14.93;9.20;;;11.20;65.60;;;10.55;51.31;101457.59;4994181;28;20058;-77
2023/04/18 01:24:23;;;;;;;18.27;9.10;;;11.20;65.80;;;10.53;51.32;101468.44;5011192;28;20042;-77
2023/04/18 01:26:50;;;;;;;12.67;8.80;;;11.10;65.80;;;10.49;51.52;101466.34;5017301;28;20129;-78
2023/04/18 01:29:17;;;;;;;18.02;9.73;;;11.10;66.20;;;10.46;51.78;101462.22;5010146;28;20048;-76
2023/04/18 01:31:45;;;;;;;13.88;9.18;;;11.10;66.40;;;10.42;52.04;101460.09;5008213;28;20136;-76
2023/04/18 01:34:17;;;;;;;16.75;9.75;;;11.00;66.70;;;10.40;52.16;101454.13;4999415;28;20048;-76
2023/04/18 01:36:45;;;;;;;13.70;9.18;;;11.00;66.80;;;10.38;52.21;101458.81;5025346;28;20049;-80
2023/04/18 01:39:13;;;;;;;14.43;9.40;;;11.00;66.90;;;10.34;52.43;101452.19;4995918;28;20050;-77
2023/04/18 01:41:42;;;;;;;13.18;9.10;;;11.00;67.10;;;10.31;52.56;101451.56;5008949;28;20469;-79
2023/04/18 01:44:10;;;;;;;13.68;8.38;;;10.90;67.30;;;10.30;52.42;101454.44;5014595;28;20053;-77
2023/04/18 01:46:37;;;;;;;16.17;9.43;;;10.90;67.20;;;10.25;52.71;101449.66;5015300;28;20173;-78
2023/04/18 01:49:06;;;;;;;13.00;8.95;;;10.90;67.50;;;10.27;52.69;101452.13;5001507;28;20061;-76
2023/04/18 01:51:33;;;;;;;13.23;8.88;;;10.90;67.50;;;10.27;52.74;101446.78;4995088;28;20156;-77
2023/04/18 01:54:00;;;;;;;13.00;9.05;;;10.90;67.60;;;10.29;52.54;101450.91;5003847;28;20550;-77
2023/04/18 01:56:27;;;;;;;13.82;8.60;;;10.90;67.50;;;10.29;52.57;101450.09;5000543;28;20692;-77
2023/04/18 01:58:56;;;;;;;15.13;8.82;;;10.90;67.50;;;10.26;52.75;101443.28;4985718;28;20363;-78
2023/04/18 02:01:23;;;;;;;13.75;8.88;;;10.90;67.70;;;10.27;52.85;101442.28;5005443;28;20054;-76
2023/04/18 02:03:50;;;;;;;12.38;8.02;;;10.90;67.80;;;10.26;52.88;101443.28;5009499;28;20066;-76
2023/04/18 02:06:19;;;;;;;13.95;9.32;;;10.90;67.90;;;10.24;52.84;101442.63;4996424;28;20053;-78
2023/04/18 02:08:48;;;;;;;13.63;8.65;;;10.80;67.70;;;10.23;52.83;101438.28;5004254;28;20038;-76
2023/04/18 02:11:15;;;;;;;12.05;8.15;;;10.80;67.70;;;10.23;52.84;101434.81;4985582;28;20141;-78
2023/04/18 02:13:42;;;;;;;13.80;8.82;;;10.80;67.90;;;10.20;52.83;101433.34;5003864;28;20161;-77
2023/04/18 02:16:13;;;;;;;13.35;8.07;;;10.80;67.90;;;10.20;53.00;101446.69;5030300;28;20513;-78
2023/04/18 02:18:44;;;;;;;13.57;8.27;;;10.80;68.10;;;10.17;52.98;101443.53;4991131;28;20054;-76
2023/04/18 02:21:11;;;;;;;13.82;8.02;;;10.70;68.10;;;10.13;53.14;101440.41;4991901;28;20048;-76
2023/04/18 02:23:38;;;;;;;14.80;7.97;;;10.70;68.40;;;10.13;53.09;101440.41;5002487;28;20141;-76
2023/04/18 02:26:05;;;;;;;11.85;7.30;;;10.70;68.30;;;10.14;53.16;101443.91;4999055;28;20493;-77
2023/04/18 02:28:33;;;;;;;11.85;7.22;;;10.70;68.50;;;10.07;53.47;101441.16;5001327;28;20070;-79
2023/04/18 02:31:03;;;;;;;12.65;8.55;;;10.70;68.50;;;10.08;53.39;101440.13;5013982;28;20049;-77
2023/04/18 02:33:32;;;;;;;11.57;7.78;;;10.70;68.70;;;10.09;53.25;101439.13;5006552;28;20447;-76
2023/04/18 02:36:00;;;;;;;11.60;7.43;;;10.70;68.50;;;10.09;53.39;101443.63;5008777;28;20112;-78
2023/04/18 02:38:27;;;;;;;14.13;7.93;;;10.80;68.60;;;10.06;53.48;101439.50;4992812;28;20741;-78
2023/04/18 02:40:54;;;;;;;11.55;7.32;;;10.70;68.50;;;10.04;53.38;101444.19;5010050;28;20128;-78
2023/04/18 02:43:22;;;;;;;12.65;7.22;;;10.60;68.30;;;10.04;53.28;101442.34;5002838;28;20779;-80
2023/04/18 02:45:49;;;;;;;12.45;7.63;;;10.60;68.40;;;10.05;53.20;101443.16;5010420;28;20103;-77
2023/04/18 02:48:16;;;;;;;12.40;7.60;;;10.70;68.50;;;10.04;53.17;101441.50;5017674;28;20042;-76
2023/04/18 02:50:46;;;;;;;12.73;7.00;;;10.60;68.40;;;10.00;53.23;101446.41;4996720;28;20132;-76
2023/04/18 02:53:14;;;;;;;12.30;8.07;;;10.60;68.50;;;9.93;53.36;101444.63;5003740;28;20100;-77
2023/04/18 02:55:50;;;;;;;10.50;6.78;;;10.50;68.60;;;9.92;53.46;101450.97;4992275;28;20095;-78
2023/04/18 02:58:18;;;;;;;14.85;7.93;;;10.50;68.90;;;9.89;53.50;101443.34;5001097;28;20046;-77
2023/04/18 03:00:58;;;;;;;13.02;7.80;;;10.50;68.80;;;9.87;53.66;101442.72;5014612;28;20550;-76
2023/04/18 03:03:28;;;;;;;10.98;7.38;;;10.50;68.90;;;9.86;53.74;101443.69;5013574;28;20636;-78
2023/04/18 03:06:12;;;;;;;12.60;7.03;;;10.40;69.30;;;9.81;53.88;101436.28;5014258;28;20144;-76
2023/04/18 03:08:40;;;;;;;10.25;6.72;;;10.40;69.30;;;9.81;53.78;101438.94;5014626;28;20766;-77
2023/04/18 03:11:08;;;;;;;9.00;6.50;;;10.40;69.30;;;9.82;53.78;101434.44;4989824;28;20073;-79
2023/04/18 03:13:36;;;;;;;12.05;7.15;;;10.40;69.30;;;9.79;53.90;101439.09;5016239;28;20100;-77
2023/04/18 03:16:05;;;;;;;14.70;7.03;;;10.30;69.50;;;9.77;53.60;101438.47;4999512;28;20053;-77
2023/04/18 03:18:33;;;;;;;11.35;6.18;;;10.30;69.40;;;9.77;53.85;101441.13;4993707;28;20540;-77
2023/04/18 03:21:00;;;;;;;10.60;6.93;;;10.30;69.50;;;9.74;54.03;101435.34;4994251;28;20038;-77
2023/04/18 03:23:30;;;;;;;10.40;7.07;;;10.30;69.50;;;9.70;54.03;101434.03;4998808;28;20060;-78
2023/04/18 03:25:59;;;;;;;10.77;6.90;;;10.40;69.60;;;9.71;54.07;101446.34;5006487;28;20057;-78
2023/04/18 03:28:29;;;;;;;9.47;7.03;;;10.30;69.70;;;9.70;54.24;101440.19;4998929;28;20057;-78
2023/04/18 03:30:57;;;;;;;11.27;6.93;;;10.30;69.70;;;9.70;54.11;101448.19;5002288;28;20045;-80
2023/04/18 03:33:24;;;;;;;11.38;6.80;;;10.30;69.70;;;9.68;54.30;101442.22;5008031;28;20053;-77
2023/04/18 03:35:57;;;;;;;12.05;7.60;;;10.30;69.80;;;9.68;54.23;101446.72;5000214;28;20133;-76
2023/04/18 03:38:25;;;;;;;9.88;6.80;;;10.20;69.70;;;9.67;54.28;101451.22;5018694;28;20069;-77
2023/04/18 03:40:53;;;;;;;8.73;6.50;;;10.20;69.70;;;9.65;54.31;101447.06;5009290;28;20038;-76
2023/04/18 03:43:27;;;;;;;12.50;7.40;;;10.20;70.00;;;9.64;54.42;101453.41;5007497;28;21730;-78
2023/04/18 03:45:55;;;;;;;12.07;7.55;;;10.20;70.10;;;9.60;54.65;101449.47;4991687;28;20041;-77
2023/04/18 03:48:22;;;;;;;9.80;6.88;;;10.20;70.10;;;9.57;54.71;101448.00;5001206;28;20037;-77
2023/04/18 03:50:50;;;;;;;9.57;6.78;;;10.10;70.50;;;9.53;54.92;101444.03;5002852;28;20049;-77
2023/04/18 03:53:17;;;;;;;10.85;7.18;;;10.10;70.70;;;9.48;54.89;101449.91;5021212;28;20050;-76
2023/04/18 03:55:44;;;;;;;10.45;7.43;;;10.00;70.70;;;9.46;55.07;101459.88;5009160;28;20473;-77
2023/04/18 03:58:16;;;;;;;10.77;7.10;;;10.00;70.90;;;9.43;55.14;101452.28;4992093;28;20089;-77
2023/04/18 04:00:45;;;;;;;11.57;7.10;;;10.00;71.00;;;9.38;55.18;101461.81;4994549;28;20073;-78
2023/04/18 04:03:12;;;;;;;9.88;6.50;;;10.00;71.10;;;9.41;55.32;101462.25;5010632;28;20077;-77
2023/04/18 04:05:40;;;;;;;11.48;7.15;;;10.00;71.10;;;9.39;55.27;101471.44;4997883;28;20049;-78
2023/04/18 04:08:07;;;;;;;10.95;7.43;;;9.90;71.40;;;9.38;55.41;101462.63;5007087;28;20123;-75
2023/04/18 04:10:35;;;;;;;10.80;7.07;;;9.90;71.50;;;9.37;55.72;101470.78;4998082;28;20073;-77
2023/04/18 04:13:02;;;;;;;10.55;7.43;;;9.90;71.70;;;9.36;55.48;101463.81;4987806;28;20043;-77
2023/04/18 04:15:33;;;;;;;10.90;7.28;;;9.90;71.70;;;9.38;55.67;101469.78;5004973;28;20088;-75
2023/04/18 04:18:06;;;;;;;11.57;7.45;;;9.90;71.70;;;9.37;55.72;101465.44;4998231;28;20053;-77
2023/04/18 04:20:35;;;;;;;12.20;7.97;;;9.90;71.90;;;9.37;55.52;101471.63;5021415;28;20438;-78
2023/04/18 04:23:10;;;;;;;12.55;7.63;;;9.90;71.70;;;9.35;55.82;101464.81;5007278;28;20049;-78
2023/04/18 04:25:39;;;;;;;11.80;7.80;;;9.90;72.10;;;9.36;55.77;101475.28;4980240;28;20054;-76
2023/04/18 04:28:14;;;;;;;11.50;7.97;;;9.90;72.00;;;9.38;55.96;101477.78;4996182;28;20038;-76
2023/04/18 04:30:55;;;;;;;12.75;7.82;;;10.00;72.10;;;9.37;55.94;101468.97;4984669;28;20050;-77
2023/04/18 04:33:24;;;;;;;12.73;8.30;;;10.00;72.10;;;9.38;55.95;101469.78;4998718;28;20050;-77
2023/04/18 04:35:54;;;;;;;12.13;8.52;;;9.90;72.20;;;9.37;56.04;101465.44;4995740;28;20123;-77
2023/04/18 04:38:22;;;;;;;10.52;7.82;;;9.90;72.40;;;9.35;56.33;101467.47;4985610;28;20047;-76
2023/04/18 04:40:50;;;;;;;11.15;8.57;;;9.90;72.50;;;9.39;56.20;101476.78;4996419;28;20049;-76
2023/04/18 04:43:19;;;;;;;14.02;9.10;;;10.00;72.60;;;9.37;56.43;101476.94;5015276;28;20502;-78
2023/04/18 04:45:50;;;;;;;15.15;8.65;;;10.00;72.70;;;9.36;56.44;101477.13;4985187;28;20053;-76
2023/04/18 04:48:23;;;;;;;15.20;9.13;;;9.90;72.80;;;9.38;56.50;101488.44;4987641;28;20045;-77
2023/04/18 04:50:56;;;;;;;13.50;9.30;;;10.00;72.90;;;9.36;56.64;101493.91;4990473;28;20092;-75
2023/04/18 04:53:23;;;;;;;17.83;10.48;;;9.90;72.90;;;9.33;56.78;101482.81;5005276;28;20041;-77
2023/04/18 04:55:51;;;;;;;15.23;9.90;;;9.90;73.10;;;9.34;56.82;101489.78;4999057;28;20049;-76
2023/04/18 04:58:19;;;;;;;14.45;9.90;;;9.90;73.30;;;9.32;57.08;101483.78;4993422;28;20042;-77
2023/04/18 05:01:02;;;;;;;13.35;10.05;;;9.90;73.50;;;9.36;57.13;101490.41;4998487;28;20386;-75
2023/04/18 05:03:32;;;;;;;16.58;10.73;;;10.00;73.50;;;9.37;57.16;101486.75;4984701;28;20049;-76
2023/04/18 05:06:00;;;;;;;14.93;10.40;;;10.00;73.50;;;9.34;57.32;101505.75;4991447;28;20058;-75
2023/04/18 05:08:27;;;;;;;16.30;10.73;;;10.00;73.70;;;9.30;57.42;101497.28;5018692;28;20069;-75
2023/04/18 05:10:55;;;;;;;14.73;10.27;;;9.90;73.90;;;9.27;57.69;101494.97;5009509;28;20044;-75
2023/04/18 05:13:22;;;;;;;16.33;10.90;;;9.90;73.90;;;9.29;57.65;101500.97;4999929;28;20121;-76
2023/04/18 05:15:50;;;;;;;17.00;11.15;;;9.90;73.90;;;9.26;57.82;101496.81;5009289;28;20042;-77
2023/04/18 05:18:18;;;;;;;15.15;10.27;;;9.90;74.20;;;9.28;57.71;101497.47;5007433;28;20038;-77
2023/04/18 05:20:46;;;;;;;14.25;9.68;;;9.90;74.20;;;9.32;57.79;101492.63;5003333;28;20398;-77
2023/04/18 05:23:13;;;;;;;14.15;10.25;;;10.00;74.30;;;9.35;57.82;101502.91;5007332;28;20521;-77
2023/04/18 05:25:40;;;;;;;14.73;11.15;;;10.00;74.20;;;9.39;57.77;101511.38;5015161;28;20049;-75
2023/04/18 05:28:08;;;;;;;13.25;10.05;;;10.00;74.10;;;9.44;57.63;101504.50;5005660;28;20099;-76
2023/04/18 05:30:35;;;;;;;14.98;10.30;;;10.00;73.90;;;9.53;57.69;101507.94;5003466;28;20046;-76
2023/04/18 05:33:02;;;;;;;13.90;10.25;;;10.10;74.00;;;9.60;57.58;101506.22;5009065;28;20121;-77
2023/04/18 05:35:31;;;;;;;15.95;10.48;;;10.20;74.10;;;9.66;57.42;101513.50;5013459;28;20283;-76
2023/04/18 05:37:59;;;;;;;13.55;10.40;;;10.20;73.80;;;9.75;57.30;101514.25;5007502;28;20434;-75
2023/04/18 05:40:27;;;;;;;17.80;10.63;;;10.30;73.70;;;9.77;57.07;101515.72;5007391;28;20125;-76
2023/04/18 05:42:54;;;;;;;15.95;10.43;;;10.30;73.50;;;9.84;57.01;101523.00;5003759;28;20131;-77
2023/04/18 05:45:21;;;;;;;15.02;10.40;;;10.40;73.30;;;9.87;56.91;101526.13;5006550;28;20038;-76
2023/04/18 05:47:48;;;;;;;13.98;10.27;;;10.50;73.30;;;9.88;56.55;101522.44;5009771;28;20516;-76
2023/04/18 05:50:16;;;;;;;15.10;10.27;;;10.50;72.90;;;9.83;56.86;101527.50;5009397;28;20146;-75
2023/04/18 05:52:43;;;;;;;14.13;10.68;;;10.50;73.00;;;9.85;56.80;101528.13;5004417;28;20152;-76
2023/04/18 05:55:11;;;;;;;15.93;10.93;;;10.50;73.10;;;9.92;56.87;101528.25;5007227;28;20052;-77
2023/04/18 05:57:39;;;;;;;14.85;10.70;;;10.50;73.10;;;9.99;57.07;101530.00;5009498;28;20138;-75
2023/04/18 06:00:10;;;;;;;16.00;10.73;;;10.60;73.30;;;10.07;56.77;101526.44;5003977;28;20398;-76
2023/04/18 06:02:39;;;;;;;16.40;10.13;;;10.70;73.10;;;10.12;56.48;101531.22;5014920;28;20257;-75
2023/04/18 06:05:08;;;;;;;14.15;10.68;;;10.70;72.70;;;10.16;56.38;101527.19;5007489;28;20050;-76
2023/04/18 06:07:35;;;;;;;14.77;10.05;;;10.70;72.70;;;10.19;56.44;101527.63;5013765;28;20393;-76
2023/04/18 06:10:04;;;;;;;14.43;10.93;;;10.80;72.60;;;10.26;56.62;101533.94;5015479;28;20559;-76
2023/04/18 06:12:33;;;;;;;15.02;11.35;;;10.90;72.90;;;10.31;56.38;101538.72;4996203;28;20053;-76
2023/04/18 06:15:00;;;;;;;14.68;11.15;;;10.90;72.50;;;10.31;56.16;101550.22;5008674;28;20145;-77
2023/04/18 06:17:27;;;;;;;15.23;11.85;;;10.90;72.10;;;10.28;55.88;101544.41;5007585;28;20064;-75
2023/04/18 06:19:55;;;;;;;18.00;12.23;;;10.90;71.90;;;10.26;55.92;101538.44;5021367;28;20132;-78
2023/04/18 06:22:22;;;;;;;16.52;11.98;;;10.90;71.90;;;10.27;55.98;101543.59;5002479;28;20049;-77
2023/04/18 06:24:49;;;;;;;16.80;11.63;;;10.90;72.00;;;10.25;55.96;101544.81;5000912;28;20490;-76
2023/04/18 06:27:16;;;;;;;16.67;11.57;;;10.90;71.90;;;10.23;55.86;101541.44;5004669;28;20092;-79
2023/04/18 06:29:45;;;;;;;15.38;11.27;;;11.00;71.90;;;10.18;55.89;101557.97;5008764;28;20505;-77
2023/04/18 06:32:12;;;;;;;15.48;11.50;;;10.90;71.90;;;10.15;56.27;101553.03;5007462;28;20049;-77
2023/04/18 06:34:39;;;;;;;16.73;11.73;;;10.80;72.10;;;10.12;56.10;101565.88;5009786;28;20045;-77
2023/04/18 06:37:06;;;;;;;18.10;10.68;;;10.80;72.20;;;10.10;56.43;101560.72;5006477;28;20056;-78
2023/04/18 06:39:34;;;;;;;18.30;12.35;;;10.70;72.50;;;10.07;56.26;101555.75;5007089;28;20491;-78
2023/04/18 06:42:03;;;;;;;20.05;10.73;;;10.70;72.40;;;10.06;56.59;101559.44;5013579;28;20092;-75
2023/04/18 06:44:31;;;;;;;15.77;11.25;;;10.70;72.60;;;10.01;56.76;101569.81;4988678;28;20144;-77
2023/04/18 06:47:00;;;;;;;16.83;11.25;;;10.70;73.10;;;9.95;57.03;101557.19;5008219;28;20038;-77
2023/04/18 06:49:27;;;;;;;16.05;11.43;;;10.60;73.10;;;9.96;57.05;101558.88;5027855;28;20037;-77
2023/04/18 06:51:54;;;;;;;17.85;10.95;;;10.60;73.30;;;9.95;57.40;101558.00;5008080;28;20042;-76
2023/04/18 06:54:21;;;;;;;15.70;11.50;;;10.60;73.40;;;10.00;57.64;101562.81;5008509;28;20077;-77
2023/04/18 06:56:48;;;;;;;15.30;11.20;;;10.60;73.60;;;10.00;57.56;101557.47;5009127;28;20117;-76
2023/04/18 06:59:16;;;;;;;15.52;11.25;;;10.60;73.60;;;10.00;57.66;101571.66;5016758;28;20041;-78
2023/04/18 07:01:43;;;;;;;16.20;10.50;;;10.60;73.70;;;9.99;57.74;101563.81;5011949;28;20132;-76
2023/04/18 07:04:11;;;;;;;16.45;11.65;;;10.60;73.80;;;9.96;57.81;101562.38;5008939;28;20049;-76
2023/04/18 07:06:39;;;;;;;17.55;11.68;;;10.60;74.00;;;9.97;57.76;101574.66;5009198;28;20582;-77
2023/04/18 07:09:06;;;;;;;17.35;12.18;;;10.60;74.10;;;9.93;58.27;101577.88;5012831;28;20042;-78
2023/04/18 07:11:33;;;;;;;20.10;12.55;;;10.60;74.40;;;9.93;58.21;101569.88;5013038;28;20048;-76
2023/04/18 07:14:00;;;;;;;16.67;11.95;;;10.60;74.40;;;9.92;58.28;101570.91;5028282;28;20148;-76
2023/04/18 07:16:27;;;;;;;17.77;11.40;;;10.60;74.40;;;9.92;58.40;101576.22;5018743;28;20048;-76
2023/04/18 07:18:54;;;;;;;19.42;12.10;;;10.60;74.60;;;9.88;58.46;101577.59;5008215;28;20038;-76
2023/04/18 07:21:23;;;;;;;17.55;12.20;;;10.50;74.80;;;9.89;58.68;101576.56;5017021;28;20056;-77
2023/04/18 07:23:50;;;;;;;16.48;11.65;;;10.60;74.90;;;9.91;58.73;101572.72;5009358;28;20565;-76
2023/04/18 07:26:18;;;;;;;17.67;12.00;;;10.60;75.00;;;9.91;58.88;101571.91;5008818;28;20053;-77
2023/04/18 07:28:45;;;;;;;17.23;11.30;;;10.60;75.20;;;9.94;58.81;101571.53;4996108;28;20458;-78
2023/04/18 07:31:13;;;;;;;16.20;11.50;;;10.60;75.10;;;9.97;58.74;101573.84;5019785;28;20054;-77
2023/04/18 07:33:40;;;;;;;19.13;12.57;;;10.60;75.10;;;10.00;58.62;101579.66;5019575;28;20049;-77
2023/04/18 07:36:08;;;;;;;18.45;12.55;;;10.60;74.90;;;10.01;58.63;101577.81;5009095;28;20045;-76
2023/04/18 07:38:36;;;;;;;18.67;12.40;;;10.60;75.00;;;9.97;58.63;101580.00;5011298;28;20520;-77
2023/04/18 07:41:04;;;;;;;17.95;12.27;;;10.60;75.00;;;10.02;58.79;101582.13;5020305;28;20037;-78
2023/04/18 07:43:31;;;;;;;17.35;12.95;;;10.70;75.40;;;9.99;58.70;101587.81;5013680;28;20419;-76
2023/04/18 07:45:58;;;;;;;19.60;12.45;;;10.70;75.00;;;9.96;58.83;101591.69;5027348;28;20049;-77
2023/04/18 07:48:26;;;;;;;18.45;12.27;;;10.70;75.20;;;9.98;58.79;101588.81;5028863;28;20685;-77
2023/04/18 07:50:53;;;;;;;23.33;12.85;;;10.60;75.10;;;9.98;58.72;101588.81;5021395;28;20050;-77
2023/04/18 07:53:20;;;;;;;17.00;13.13;;;10.60;74.90;;;9.96;58.89;101590.84;5006121;28;20390;-76
2023/04/18 07:55:50;;;;;;;22.52;13.23;;;10.60;75.20;;;10.00;58.88;101592.97;5022092;28;20107;-77
2023/04/18 07:58:17;;;;;;;21.02;12.88;;;10.70;75.50;;;10.01;58.92;101591.97;5028739;28;20048;-78
2023/04/18 08:00:44;;;;;;;21.05;13.70;;;10.70;75.40;;;10.00;58.87;101584.97;5028145;28;20051;-79
2023/04/18 08:03:12;;;;;;;18.60;12.75;;;10.70;75.40;;;10.02;58.72;101588.28;5024589;28;20144;-76
2023/04/18 08:05:40;;;;;;;19.83;13.57;;;10.70;75.40;;;10.06;59.29;101594.91;5016758;28;20070;-77
2023/04/18 08:08:08;;;;;;;18.38;13.23;;;10.70;75.60;;;10.03;59.04;101592.59;5008385;28;20052;-76
2023/04/18 08:10:35;;;;;;;19.67;13.30;;;10.70;75.60;;;10.07;59.22;101596.56;5001520;28;20781;-77
2023/04/18 08:13:04;;;;;;;18.38;13.18;;;10.70;75.70;;;10.01;59.19;101588.47;5015807;28;20052;-79
2023/04/18 08:15:32;;;;;;;19.63;13.20;;;10.70;75.70;;;10.04;59.24;101588.09;5008470;28;20712;-77
2023/04/18 08:17:59;;;;;;;21.92;13.82;;;10.70;75.70;;;10.07;59.25;101595.75;5008764;28;20046;-78
2023/04/18 08:20:27;;;;;;;21.02;12.90;;;10.70;75.60;;;10.12;59.05;101592.53;5007327;28;20044;-78
2023/04/18 08:22:54;;;;;;;19.38;13.43;;;10.80;75.40;;;10.17;59.02;101604.31;5011824;28;20044;-76
2023/04/18 08:25:21;;;;;;;20.75;13.52;;;10.80;75.30;;;10.19;58.99;101601.47;5026866;28;20041;-76
2023/04/18 08:27:48;;;;;;;22.83;13.95;;;10.90;75.40;;;10.20;58.91;101601.28;5005712;28;20061;-76
2023/04/18 08:30:17;;;;;;;21.75;14.27;;;10.90;75.40;;;10.21;58.80;101608.28;5012472;28;20038;-78
2023/04/18 08:32:44;;;;;;;21.73;14.38;;;10.90;75.20;;;10.24;58.67;101604.44;5019618;28;20455;-76
2023/04/18 08:35:11;;;;;;;22.95;15.43;;;10.90;75.20;;;10.22;58.78;101596.59;5028744;28;20128;-78
2023/04/18 08:37:39;;;;;;;23.23;14.05;;;10.90;75.10;;;10.26;58.74;101594.44;5031900;28;20076;-77
2023/04/18 08:40:08;;;;;;;24.25;14.02;;;10.90;75.00;;;10.23;58.42;101608.91;5015377;28;20133;-76
2023/04/18 08:42:37;;;;;;;17.83;12.48;;;10.90;74.70;;;10.21;58.55;101608.28;4987736;28;20741;-78
2023/04/18 08:45:05;;;;;;;20.65;13.73;;;10.90;74.90;;;10.21;58.45;101605.63;5011541;28;20050;-76
2023/04/18 08:47:35;;;;;;;20.67;13.30;;;10.90;74.70;;;10.23;58.59;101618.75;5066954;22;20044;-76
2023/04/18 08:50:03;;;;;;;20.58;13.52;;;10.90;75.00;;;10.20;58.68;101603.09;5071414;28;20486;-77
2023/04/18 08:52:32;;;;;;;19.10;12.38;;;10.90;75.00;;;10.19;58.88;101604.13;5070308;28;20412;-78
2023/04/18 08:55:02;;;;;;;19.80;13.45;;;10.90;75.20;;;10.15;58.83;101605.50;5071805;28;20094;-78
2023/04/18 08:57:30;;;;;;;18.88;12.65;;;10.90;75.20;;;10.13;58.90;101607.53;5070685;28;20157;-78
2023/04/18 08:59:59;;;;;;;20.75;13.95;;;11.00;75.20;;;10.16;59.00;101615.16;5065925;28;20048;-77
2023/04/18 09:02:41;;;;;;;18.80;12.75;;;10.90;75.20;;;10.17;58.95;101604.31;5071033;28;20115;-77
2023/04/18 09:05:12;;;;;;;;;;;10.90;75.30;;;10.20;58.78;101611.09;5072122;28;20579;-79
2023/04/18 09:07:40;;;;;;;20.00;13.57;;;10.90;75.20;;;10.20;59.01;101608.44;5071880;28;20573;-76
2023/04/18 09:10:09;;;;;;;18.23;12.95;;;10.90;75.40;;;10.23;58.88;101602.75;5070701;28;20059;-77
2023/04/18 09:12:43;;;;;;;18.48;13.05;;;10.80;75.30;;;10.25;58.93;101619.44;5063494;28;20651;-78
2023/04/18 09:15:13;;;;;;;18.50;12.70;;;10.90;75.40;;;10.24;59.03;101621.25;5069067;28;20043;-77
2023/04/18 09:17:48;;;;;;;18.75;13.10;;;10.90;75.40;;;10.19;58.84;101620.94;5071442;28;20040;-78
2023/04/18 09:20:29;;;;;;;22.63;13.23;;;10.90;75.40;;;10.12;59.11;101621.84;5068785;28;20102;-76
2023/04/18 09:22:59;;;;;;;22.45;14.13;;;10.80;75.40;;;10.08;59.41;101621.38;5059039;28;20125;-77
2023/04/18 09:25:33;;;;;;;21.45;14.02;;;10.80;75.60;;;10.05;59.43;101625.25;5070343;28;20102;-76
2023/04/18 09:28:01;;;;;;;20.65;14.27;;;10.80;75.80;;;10.03;59.65;101616.59;5068695;28;20047;-76
2023/04/18 09:30:38;;;;;;;23.05;14.45;;;10.70;76.00;;;10.05;59.78;101627.06;5071057;28;20044;-77
2023/04/18 09:33:09;;;;;;;22.88;13.50;;;10.70;76.30;;;10.04;60.06;101622.75;5070894;28;20074;-76
2023/04/18 09:35:37;;;;;;;23.02;13.60;;;10.70;76.40;;;10.07;60.00;101614.41;5071158;28;20064;-77
2023/04/18 09:38:05;;;;;;;18.83;12.63;;;10.70;76.50;;;10.08;60.03;101616.06;5061577;28;20428;-76
2023/04/18 09:40:33;;;;;;;19.88;12.63;;;10.80;76.40;;;10.07;60.11;101623.22;5070701;28;20148;-78
2023/04/18 09:43:00;;;;;;;20.20;13.35;;;10.80;76.50;;;10.08;60.26;101616.06;5064460;28;20393;-77
2023/04/18 09:45:28;;;;;;;20.42;13.13;;;10.80;76.80;;;10.13;60.43;101615.50;5069703;28;20059;-78
2023/04/18 09:47:55;;;;;;;19.15;12.48;;;10.80;76.80;;;10.11;60.67;101621.03;5070878;28;20106;-78
2023/04/18 09:50:23;;;;;;;21.65;13.85;;;10.80;77.20;;;10.07;60.83;101612.56;5070439;28;20045;-76
2023/04/18 09:52:51;;;;;;;22.70;14.38;;;10.80;77.30;;;10.08;60.77;101613.38;5070653;28;20033;-77
2023/04/18 09:55:19;;;;;;;23.17;13.77;;;10.80;77.30;;;10.13;60.77;101605.69;5061791;28;20426;-76
2023/04/18 09:57:50;;;;;;;26.25;13.93;;;10.80;77.50;;;10.17;60.94;101612.31;5070112;28;20049;-78
2023/04/18 10:00:24;;;;;;;22.48;13.63;;;10.90;77.50;;;10.16;60.94;101610.66;5065422;28;20100;-78
2023/04/18 10:02:57;;;;;;;22.83;15.13;;;10.90;77.60;;;10.19;61.33;101609.44;5068444;28;20036;-76
2023/04/18 10:05:28;;;;;;;21.38;13.75;;;10.90;78.20;;;10.23;61.24;101616.91;5069214;28;20048;-77
2023/04/18 10:07:55;;;;;;;;;;;10.90;77.90;;;10.24;61.01;101605.25;5053047;28;20417;-79
2023/04/18 10:10:23;;;;;;;23.55;13.88;;;10.90;77.60;;;10.26;61.05;101603.25;5070224;28;19928;-77
2023/04/18 10:12:55;;;;;;;21.13;13.25;;;10.90;77.60;;;10.32;61.19;101604.38;5069472;28;20119;-76